sensor_id;sensor_type;location;lat;lon;timestamp;P1;durP1;ratioP1;P2;durP2;ratioP2
20271;SDS011;10295;49.812;9.866;2023-06-26T00:01:32;11.97;;;7.30;;
20271;SDS011;10295;49.812;9.866;2023-06-26T00:04:00;14.90;;;7.30;;
20271;SDS011;10295;49.812;9.866;2023-06-26T00:06:28;12.60;;;7.57;;
20271;SDS011;10295;49.812;9.866;2023-06-26T00:08:55;14.30;;;7.63;;
20271;SDS011;10295;49.812;9.866;2023-06-26T00:11:22;14.10;;;7.83;;
20271;SDS011;10295;49.812;9.866;2023-06-26T00:13:50;14.07;;;8.00;;
20271;SDS011;10295;49.812;9.866;2023-06-26T00:16:17;14.07;;;7.33;;
20271;SDS011;10295;49.812;9.866;2023-06-26T00:18:44;13.30;;;7.67;;
20271;SDS011;10295;49.812;9.866;2023-06-26T00:21:11;13.83;;;7.63;;
20271;SDS011;10295;49.812;9.866;2023-06-26T00:23:38;13.47;;;7.70;;
20271;SDS011;10295;49.812;9.866;2023-06-26T00:26:06;13.47;;;7.30;;
20271;SDS011;10295;49.812;9.866;2023-06-26T00:28:33;15.93;;;8.17;;
20271;SDS011;10295;49.812;9.866;2023-06-26T00:31:00;14.90;;;7.77;;
20271;SDS011;10295;49.812;9.866;2023-06-26T00:33:27;12.77;;;7.40;;
20271;SDS011;10295;49.812;9.866;2023-06-26T00:35:54;13.37;;;7.80;;
20271;SDS011;10295;49.812;9.866;2023-06-26T00:38:21;13.67;;;7.97;;
20271;SDS011;10295;49.812;9.866;2023-06-26T00:40:49;13.63;;;7.77;;
20271;SDS011;10295;49.812;9.866;2023-06-26T00:43:16;12.80;;;7.83;;
20271;SDS011;10295;49.812;9.866;2023-06-26T00:45:43;14.37;;;8.27;;
20271;SDS011;10295;49.812;9.866;2023-06-26T00:48:10;16.00;;;8.40;;
20271;SDS011;10295;49.812;9.866;2023-06-26T00:50:41;12.43;;;7.63;;
20271;SDS011;10295;49.812;9.866;2023-06-26T00:53:11;12.53;;;7.53;;
20271;SDS011;10295;49.812;9.866;2023-06-26T00:55:39;13.17;;;7.73;;
20271;SDS011;10295;49.812;9.866;2023-06-26T00:58:06;16.10;;;8.03;;
20271;SDS011;10295;49.812;9.866;2023-06-26T01:00:33;14.00;;;7.77;;
20271;SDS011;10295;49.812;9.866;2023-06-26T01:03:01;17.00;;;8.30;;
20271;SDS011;10295;49.812;9.866;2023-06-26T01:05:28;13.17;;;7.53;;
20271;SDS011;10295;49.812;9.866;2023-06-26T01:07:57;14.17;;;8.00;;
20271;SDS011;10295;49.812;9.866;2023-06-26T01:10:24;14.60;;;7.57;;
20271;SDS011;10295;49.812;9.866;2023-06-26T01:12:54;15.33;;;7.93;;
20271;SDS011;10295;49.812;9.866;2023-06-26T01:15:21;13.73;;;8.10;;
20271;SDS011;10295;49.812;9.866;2023-06-26T01:17:49;14.00;;;7.77;;
20271;SDS011;10295;49.812;9.866;2023-06-26T01:20:17;13.20;;;7.33;;
20271;SDS011;10295;49.812;9.866;2023-06-26T01:28:16;16.43;;;8.53;;
20271;SDS011;10295;49.812;9.866;2023-06-26T01:30:44;12.87;;;8.00;;
20271;SDS011;10295;49.812;9.866;2023-06-26T01:33:15;13.90;;;8.00;;
20271;SDS011;10295;49.812;9.866;2023-06-26T01:35:42;15.37;;;8.10;;
20271;SDS011;10295;49.812;9.866;2023-06-26T01:38:15;13.63;;;8.17;;
20271;SDS011;10295;49.812;9.866;2023-06-26T01:40:43;14.43;;;8.70;;
20271;SDS011;10295;49.812;9.866;2023-06-26T01:45:47;14.30;;;8.40;;
20271;SDS011;10295;49.812;9.866;2023-06-26T01:48:15;15.67;;;8.43;;
20271;SDS011;10295;49.812;9.866;2023-06-26T01:50:43;13.77;;;8.30;;
20271;SDS011;10295;49.812;9.866;2023-06-26T01:53:12;14.90;;;8.77;;
20271;SDS011;10295;49.812;9.866;2023-06-26T01:55:42;15.03;;;8.57;;
20271;SDS011;10295;49.812;9.866;2023-06-26T01:58:11;13.77;;;8.43;;
20271;SDS011;10295;49.812;9.866;2023-06-26T02:00:40;13.37;;;8.33;;
20271;SDS011;10295;49.812;9.866;2023-06-26T02:03:07;14.50;;;9.00;;
20271;SDS011;10295;49.812;9.866;2023-06-26T02:05:35;13.50;;;8.53;;
20271;SDS011;10295;49.812;9.866;2023-06-26T02:08:02;15.10;;;8.67;;
20271;SDS011;10295;49.812;9.866;2023-06-26T02:10:29;15.03;;;8.57;;
20271;SDS011;10295;49.812;9.866;2023-06-26T02:12:57;15.03;;;8.50;;
20271;SDS011;10295;49.812;9.866;2023-06-26T02:15:24;15.17;;;8.60;;
20271;SDS011;10295;49.812;9.866;2023-06-26T02:17:51;17.13;;;8.80;;
20271;SDS011;10295;49.812;9.866;2023-06-26T02:20:18;14.63;;;8.83;;
20271;SDS011;10295;49.812;9.866;2023-06-26T02:22:45;16.20;;;9.53;;
20271;SDS011;10295;49.812;9.866;2023-06-26T02:25:13;15.83;;;8.83;;
20271;SDS011;10295;49.812;9.866;2023-06-26T02:27:40;18.10;;;9.10;;
20271;SDS011;10295;49.812;9.866;2023-06-26T02:30:08;14.87;;;8.47;;
20271;SDS011;10295;49.812;9.866;2023-06-26T02:32:36;15.73;;;8.97;;
20271;SDS011;10295;49.812;9.866;2023-06-26T02:35:03;15.77;;;8.90;;
20271;SDS011;10295;49.812;9.866;2023-06-26T02:37:30;15.23;;;8.57;;
20271;SDS011;10295;49.812;9.866;2023-06-26T02:39:57;14.70;;;9.47;;
20271;SDS011;10295;49.812;9.866;2023-06-26T02:42:24;14.90;;;9.53;;
20271;SDS011;10295;49.812;9.866;2023-06-26T02:44:52;15.30;;;8.63;;
20271;SDS011;10295;49.812;9.866;2023-06-26T02:47:19;16.90;;;9.67;;
20271;SDS011;10295;49.812;9.866;2023-06-26T02:49:46;17.50;;;9.30;;
20271;SDS011;10295;49.812;9.866;2023-06-26T02:52:13;15.10;;;9.33;;
20271;SDS011;10295;49.812;9.866;2023-06-26T02:54:40;16.40;;;9.53;;
20271;SDS011;10295;49.812;9.866;2023-06-26T02:57:07;16.97;;;9.73;;
20271;SDS011;10295;49.812;9.866;2023-06-26T02:59:35;17.57;;;9.60;;
20271;SDS011;10295;49.812;9.866;2023-06-26T03:02:02;13.17;;;8.60;;
20271;SDS011;10295;49.812;9.866;2023-06-26T03:04:29;17.10;;;8.70;;
20271;SDS011;10295;49.812;9.866;2023-06-26T03:06:56;15.97;;;9.10;;
20271;SDS011;10295;49.812;9.866;2023-06-26T03:09:23;15.63;;;9.20;;
20271;SDS011;10295;49.812;9.866;2023-06-26T03:11:51;14.83;;;9.03;;
20271;SDS011;10295;49.812;9.866;2023-06-26T03:14:19;16.83;;;9.23;;
20271;SDS011;10295;49.812;9.866;2023-06-26T03:16:46;17.40;;;10.10;;
20271;SDS011;10295;49.812;9.866;2023-06-26T03:19:13;17.37;;;9.83;;
20271;SDS011;10295;49.812;9.866;2023-06-26T03:21:40;16.53;;;9.43;;
20271;SDS011;10295;49.812;9.866;2023-06-26T03:24:08;16.20;;;9.80;;
20271;SDS011;10295;49.812;9.866;2023-06-26T03:26:35;17.57;;;10.40;;
20271;SDS011;10295;49.812;9.866;2023-06-26T03:29:02;15.50;;;9.07;;
20271;SDS011;10295;49.812;9.866;2023-06-26T03:31:29;16.00;;;9.67;;
20271;SDS011;10295;49.812;9.866;2023-06-26T03:33:56;17.57;;;9.00;;
20271;SDS011;10295;49.812;9.866;2023-06-26T03:36:23;15.87;;;10.13;;
20271;SDS011;10295;49.812;9.866;2023-06-26T03:38:50;15.70;;;9.67;;
20271;SDS011;10295;49.812;9.866;2023-06-26T03:41:23;15.80;;;9.47;;
20271;SDS011;10295;49.812;9.866;2023-06-26T03:43:50;17.47;;;9.73;;
20271;SDS011;10295;49.812;9.866;2023-06-26T03:46:17;18.43;;;10.23;;
20271;SDS011;10295;49.812;9.866;2023-06-26T03:48:45;18.87;;;10.30;;
20271;SDS011;10295;49.812;9.866;2023-06-26T03:51:12;16.07;;;9.67;;
20271;SDS011;10295;49.812;9.866;2023-06-26T03:53:39;17.87;;;9.87;;
20271;SDS011;10295;49.812;9.866;2023-06-26T03:56:06;16.07;;;9.43;;
20271;SDS011;10295;49.812;9.866;2023-06-26T03:58:33;16.93;;;10.40;;
20271;SDS011;10295;49.812;9.866;2023-06-26T04:01:01;15.60;;;9.50;;
20271;SDS011;10295;49.812;9.866;2023-06-26T04:03:28;17.30;;;9.70;;
20271;SDS011;10295;49.812;9.866;2023-06-26T04:05:56;15.60;;;9.90;;
20271;SDS011;10295;49.812;9.866;2023-06-26T04:08:24;15.20;;;9.20;;
20271;SDS011;10295;49.812;9.866;2023-06-26T04:10:53;13.67;;;8.97;;
20271;SDS011;10295;49.812;9.866;2023-06-26T04:13:21;17.07;;;9.03;;
20271;SDS011;10295;49.812;9.866;2023-06-26T04:15:48;15.13;;;9.03;;
20271;SDS011;10295;49.812;9.866;2023-06-26T04:18:15;15.33;;;8.60;;
20271;SDS011;10295;49.812;9.866;2023-06-26T04:23:30;14.27;;;7.80;;
20271;SDS011;10295;49.812;9.866;2023-06-26T04:25:57;11.77;;;7.20;;
20271;SDS011;10295;49.812;9.866;2023-06-26T04:28:24;13.10;;;7.37;;
20271;SDS011;10295;49.812;9.866;2023-06-26T04:30:52;14.30;;;7.72;;
20271;SDS011;10295;49.812;9.866;2023-06-26T04:33:19;13.13;;;7.30;;
20271;SDS011;10295;49.812;9.866;2023-06-26T04:35:47;12.13;;;7.30;;
20271;SDS011;10295;49.812;9.866;2023-06-26T04:38:15;14.38;;;7.80;;
20271;SDS011;10295;49.812;9.866;2023-06-26T04:40:42;14.25;;;7.50;;
20271;SDS011;10295;49.812;9.866;2023-06-26T04:43:09;12.82;;;7.38;;
20271;SDS011;10295;49.812;9.866;2023-06-26T04:45:37;11.45;;;6.85;;
20271;SDS011;10295;49.812;9.866;2023-06-26T04:48:04;12.90;;;7.38;;
20271;SDS011;10295;49.812;9.866;2023-06-26T04:50:32;13.95;;;7.22;;
20271;SDS011;10295;49.812;9.866;2023-06-26T04:52:59;16.88;;;8.95;;
20271;SDS011;10295;49.812;9.866;2023-06-26T04:55:27;11.75;;;7.28;;
20271;SDS011;10295;49.812;9.866;2023-06-26T04:57:54;12.18;;;7.18;;
20271;SDS011;10295;49.812;9.866;2023-06-26T05:00:21;11.43;;;6.70;;
20271;SDS011;10295;49.812;9.866;2023-06-26T05:02:51;16.85;;;7.72;;
20271;SDS011;10295;49.812;9.866;2023-06-26T05:05:27;13.60;;;7.13;;
20271;SDS011;10295;49.812;9.866;2023-06-26T05:07:55;13.35;;;7.40;;
20271;SDS011;10295;49.812;9.866;2023-06-26T05:10:22;15.52;;;7.53;;
20271;SDS011;10295;49.812;9.866;2023-06-26T05:12:50;13.05;;;7.07;;
20271;SDS011;10295;49.812;9.866;2023-06-26T05:15:17;15.60;;;7.07;;
20271;SDS011;10295;49.812;9.866;2023-06-26T05:17:44;12.93;;;7.55;;
20271;SDS011;10295;49.812;9.866;2023-06-26T05:20:11;12.45;;;7.28;;
20271;SDS011;10295;49.812;9.866;2023-06-26T05:22:39;13.25;;;6.82;;
20271;SDS011;10295;49.812;9.866;2023-06-26T05:25:07;14.02;;;7.55;;
20271;SDS011;10295;49.812;9.866;2023-06-26T05:27:36;12.38;;;7.00;;
20271;SDS011;10295;49.812;9.866;2023-06-26T05:30:03;11.73;;;7.40;;
20271;SDS011;10295;49.812;9.866;2023-06-26T05:32:31;11.32;;;7.22;;
20271;SDS011;10295;49.812;9.866;2023-06-26T05:35:02;11.75;;;6.68;;
20271;SDS011;10295;49.812;9.866;2023-06-26T05:37:30;10.73;;;6.95;;
20271;SDS011;10295;49.812;9.866;2023-06-26T05:39:58;14.75;;;7.15;;
20271;SDS011;10295;49.812;9.866;2023-06-26T05:42:26;13.43;;;7.45;;
20271;SDS011;10295;49.812;9.866;2023-06-26T05:44:54;12.48;;;7.25;;
20271;SDS011;10295;49.812;9.866;2023-06-26T05:47:21;11.30;;;6.82;;
20271;SDS011;10295;49.812;9.866;2023-06-26T05:49:48;14.52;;;6.72;;
20271;SDS011;10295;49.812;9.866;2023-06-26T05:52:16;13.52;;;7.22;;
20271;SDS011;10295;49.812;9.866;2023-06-26T05:54:43;10.80;;;7.15;;
20271;SDS011;10295;49.812;9.866;2023-06-26T05:57:10;12.00;;;6.82;;
20271;SDS011;10295;49.812;9.866;2023-06-26T05:59:39;10.95;;;7.05;;
20271;SDS011;10295;49.812;9.866;2023-06-26T06:02:07;11.48;;;7.18;;
20271;SDS011;10295;49.812;9.866;2023-06-26T06:04:35;17.02;;;7.20;;
20271;SDS011;10295;49.812;9.866;2023-06-26T06:07:03;10.07;;;6.38;;
20271;SDS011;10295;49.812;9.866;2023-06-26T06:09:31;10.50;;;6.43;;
20271;SDS011;10295;49.812;9.866;2023-06-26T06:11:58;10.38;;;6.80;;
20271;SDS011;10295;49.812;9.866;2023-06-26T06:14:27;12.77;;;6.97;;
20271;SDS011;10295;49.812;9.866;2023-06-26T06:16:55;12.07;;;6.43;;
20271;SDS011;10295;49.812;9.866;2023-06-26T06:19:22;10.85;;;6.35;;
20271;SDS011;10295;49.812;9.866;2023-06-26T06:21:49;12.13;;;6.50;;
20271;SDS011;10295;49.812;9.866;2023-06-26T06:24:17;10.93;;;6.63;;
20271;SDS011;10295;49.812;9.866;2023-06-26T06:26:44;10.98;;;6.18;;
20271;SDS011;10295;49.812;9.866;2023-06-26T06:29:11;11.55;;;6.15;;
20271;SDS011;10295;49.812;9.866;2023-06-26T06:31:38;10.68;;;6.47;;
20271;SDS011;10295;49.812;9.866;2023-06-26T06:34:05;13.93;;;6.93;;
20271;SDS011;10295;49.812;9.866;2023-06-26T06:36:33;12.75;;;6.07;;
20271;SDS011;10295;49.812;9.866;2023-06-26T06:39:00;11.90;;;6.75;;
20271;SDS011;10295;49.812;9.866;2023-06-26T06:41:28;15.25;;;7.30;;
20271;SDS011;10295;49.812;9.866;2023-06-26T06:43:55;13.60;;;6.45;;
20271;SDS011;10295;49.812;9.866;2023-06-26T06:46:22;13.95;;;6.50;;
20271;SDS011;10295;49.812;9.866;2023-06-26T06:48:49;11.70;;;6.13;;
20271;SDS011;10295;49.812;9.866;2023-06-26T06:51:17;14.65;;;6.55;;
20271;SDS011;10295;49.812;9.866;2023-06-26T06:53:45;11.35;;;6.93;;
20271;SDS011;10295;49.812;9.866;2023-06-26T06:56:12;14.65;;;7.28;;
20271;SDS011;10295;49.812;9.866;2023-06-26T06:58:39;15.07;;;7.15;;
20271;SDS011;10295;49.812;9.866;2023-06-26T07:01:12;13.77;;;6.80;;
20271;SDS011;10295;49.812;9.866;2023-06-26T07:03:39;13.07;;;6.63;;
20271;SDS011;10295;49.812;9.866;2023-06-26T07:06:07;16.92;;;7.10;;
20271;SDS011;10295;49.812;9.866;2023-06-26T07:08:35;12.35;;;7.32;;
20271;SDS011;10295;49.812;9.866;2023-06-26T07:11:02;13.38;;;6.82;;
20271;SDS011;10295;49.812;9.866;2023-06-26T07:13:29;16.05;;;6.28;;
20271;SDS011;10295;49.812;9.866;2023-06-26T07:15:56;11.70;;;6.00;;
20271;SDS011;10295;49.812;9.866;2023-06-26T07:18:23;11.13;;;5.93;;
20271;SDS011;10295;49.812;9.866;2023-06-26T07:20:51;11.23;;;6.18;;
20271;SDS011;10295;49.812;9.866;2023-06-26T07:23:18;10.43;;;6.18;;
20271;SDS011;10295;49.812;9.866;2023-06-26T07:25:45;10.60;;;6.40;;
20271;SDS011;10295;49.812;9.866;2023-06-26T07:28:12;10.77;;;6.20;;
20271;SDS011;10295;49.812;9.866;2023-06-26T07:30:40;10.00;;;5.90;;
20271;SDS011;10295;49.812;9.866;2023-06-26T07:33:07;10.32;;;6.20;;
20271;SDS011;10295;49.812;9.866;2023-06-26T07:35:34;9.40;;;6.38;;
20271;SDS011;10295;49.812;9.866;2023-06-26T07:38:01;11.95;;;6.50;;
20271;SDS011;10295;49.812;9.866;2023-06-26T07:40:28;9.15;;;5.97;;
20271;SDS011;10295;49.812;9.866;2023-06-26T07:42:56;8.65;;;5.78;;
20271;SDS011;10295;49.812;9.866;2023-06-26T07:45:24;9.75;;;6.32;;
20271;SDS011;10295;49.812;9.866;2023-06-26T07:47:52;10.63;;;6.22;;
20271;SDS011;10295;49.812;9.866;2023-06-26T07:50:20;11.60;;;6.30;;
20271;SDS011;10295;49.812;9.866;2023-06-26T07:52:49;9.60;;;6.20;;
20271;SDS011;10295;49.812;9.866;2023-06-26T07:55:18;9.25;;;6.00;;
20271;SDS011;10295;49.812;9.866;2023-06-26T07:57:45;11.35;;;6.03;;
20271;SDS011;10295;49.812;9.866;2023-06-26T08:00:12;10.77;;;6.50;;
20271;SDS011;10295;49.812;9.866;2023-06-26T08:02:40;12.32;;;6.55;;
20271;SDS011;10295;49.812;9.866;2023-06-26T08:05:07;12.32;;;5.90;;
20271;SDS011;10295;49.812;9.866;2023-06-26T08:07:35;11.25;;;6.15;;
20271;SDS011;10295;49.812;9.866;2023-06-26T08:10:03;10.48;;;6.35;;
20271;SDS011;10295;49.812;9.866;2023-06-26T08:12:30;9.75;;;6.22;;
20271;SDS011;10295;49.812;9.866;2023-06-26T08:14:57;11.55;;;6.47;;
20271;SDS011;10295;49.812;9.866;2023-06-26T08:17:24;10.10;;;6.22;;
20271;SDS011;10295;49.812;9.866;2023-06-26T08:19:55;11.32;;;6.57;;
20271;SDS011;10295;49.812;9.866;2023-06-26T08:22:23;11.93;;;6.60;;
20271;SDS011;10295;49.812;9.866;2023-06-26T08:24:50;11.73;;;6.55;;
20271;SDS011;10295;49.812;9.866;2023-06-26T08:27:17;10.77;;;5.72;;
20271;SDS011;10295;49.812;9.866;2023-06-26T08:29:44;10.63;;;6.03;;
20271;SDS011;10295;49.812;9.866;2023-06-26T08:32:12;10.55;;;6.03;;
20271;SDS011;10295;49.812;9.866;2023-06-26T08:34:39;10.13;;;6.25;;
20271;SDS011;10295;49.812;9.866;2023-06-26T08:37:06;11.40;;;5.88;;
20271;SDS011;10295;49.812;9.866;2023-06-26T08:39:35;10.07;;;6.03;;
20271;SDS011;10295;49.812;9.866;2023-06-26T08:42:03;8.57;;;5.60;;
20271;SDS011;10295;49.812;9.866;2023-06-26T08:44:30;13.20;;;5.93;;
20271;SDS011;10295;49.812;9.866;2023-06-26T08:46:59;9.23;;;5.97;;
20271;SDS011;10295;49.812;9.866;2023-06-26T08:49:34;9.48;;;6.00;;
20271;SDS011;10295;49.812;9.866;2023-06-26T08:52:10;10.15;;;5.60;;
20271;SDS011;10295;49.812;9.866;2023-06-26T08:54:42;11.25;;;6.30;;
20271;SDS011;10295;49.812;9.866;2023-06-26T08:57:10;10.85;;;6.30;;
20271;SDS011;10295;49.812;9.866;2023-06-26T08:59:38;8.90;;;5.90;;
20271;SDS011;10295;49.812;9.866;2023-06-26T09:02:05;9.30;;;5.85;;
20271;SDS011;10295;49.812;9.866;2023-06-26T09:04:33;9.63;;;5.57;;
20271;SDS011;10295;49.812;9.866;2023-06-26T09:07:02;9.25;;;6.20;;
20271;SDS011;10295;49.812;9.866;2023-06-26T09:09:29;9.35;;;5.28;;
20271;SDS011;10295;49.812;9.866;2023-06-26T09:11:56;8.93;;;5.75;;
20271;SDS011;10295;49.812;9.866;2023-06-26T09:14:24;12.82;;;5.80;;
20271;SDS011;10295;49.812;9.866;2023-06-26T09:16:51;12.20;;;6.00;;
20271;SDS011;10295;49.812;9.866;2023-06-26T09:19:19;11.20;;;5.72;;
20271;SDS011;10295;49.812;9.866;2023-06-26T09:21:47;11.23;;;5.65;;
20271;SDS011;10295;49.812;9.866;2023-06-26T09:24:16;13.73;;;6.03;;
20271;SDS011;10295;49.812;9.866;2023-06-26T09:26:43;11.55;;;6.03;;
20271;SDS011;10295;49.812;9.866;2023-06-26T09:29:10;9.35;;;5.28;;
20271;SDS011;10295;49.812;9.866;2023-06-26T09:31:38;9.95;;;5.15;;
20271;SDS011;10295;49.812;9.866;2023-06-26T09:34:08;8.98;;;5.22;;
20271;SDS011;10295;49.812;9.866;2023-06-26T09:36:35;12.50;;;5.70;;
20271;SDS011;10295;49.812;9.866;2023-06-26T09:39:07;10.65;;;5.75;;
20271;SDS011;10295;49.812;9.866;2023-06-26T09:41:38;9.77;;;5.85;;
20271;SDS011;10295;49.812;9.866;2023-06-26T09:44:07;7.97;;;4.93;;
20271;SDS011;10295;49.812;9.866;2023-06-26T09:46:37;9.00;;;5.20;;
20271;SDS011;10295;49.812;9.866;2023-06-26T09:49:05;10.50;;;5.70;;
20271;SDS011;10295;49.812;9.866;2023-06-26T09:51:33;12.02;;;5.50;;
20271;SDS011;10295;49.812;9.866;2023-06-26T09:54:02;8.95;;;5.60;;
20271;SDS011;10295;49.812;9.866;2023-06-26T09:56:29;11.07;;;5.80;;
20271;SDS011;10295;49.812;9.866;2023-06-26T09:58:58;9.00;;;5.50;;
20271;SDS011;10295;49.812;9.866;2023-06-26T10:01:25;12.20;;;5.32;;
20271;SDS011;10295;49.812;9.866;2023-06-26T10:03:53;7.85;;;4.80;;
20271;SDS011;10295;49.812;9.866;2023-06-26T10:06:27;9.10;;;5.43;;
20271;SDS011;10295;49.812;9.866;2023-06-26T10:08:56;8.88;;;5.20;;
20271;SDS011;10295;49.812;9.866;2023-06-26T10:11:23;9.52;;;5.30;;
20271;SDS011;10295;49.812;9.866;2023-06-26T10:13:52;10.07;;;5.70;;
20271;SDS011;10295;49.812;9.866;2023-06-26T10:16:41;9.00;;;4.90;;
20271;SDS011;10295;49.812;9.866;2023-06-26T10:19:09;10.40;;;5.10;;
20271;SDS011;10295;49.812;9.866;2023-06-26T10:21:37;9.10;;;4.85;;
20271;SDS011;10295;49.812;9.866;2023-06-26T10:24:05;9.32;;;5.10;;
20271;SDS011;10295;49.812;9.866;2023-06-26T10:26:33;7.65;;;4.60;;
20271;SDS011;10295;49.812;9.866;2023-06-26T10:29:02;9.30;;;4.88;;
20271;SDS011;10295;49.812;9.866;2023-06-26T10:31:30;10.82;;;5.25;;
20271;SDS011;10295;49.812;9.866;2023-06-26T10:33:57;10.30;;;5.03;;
20271;SDS011;10295;49.812;9.866;2023-06-26T10:36:30;8.98;;;4.68;;
20271;SDS011;10295;49.812;9.866;2023-06-26T10:38:59;10.38;;;4.82;;
20271;SDS011;10295;49.812;9.866;2023-06-26T10:41:29;8.15;;;5.03;;
20271;SDS011;10295;49.812;9.866;2023-06-26T10:44:11;9.18;;;5.07;;
20271;SDS011;10295;49.812;9.866;2023-06-26T10:46:48;8.90;;;5.60;;
20271;SDS011;10295;49.812;9.866;2023-06-26T10:49:16;9.93;;;5.07;;
20271;SDS011;10295;49.812;9.866;2023-06-26T10:51:45;8.93;;;5.10;;
20271;SDS011;10295;49.812;9.866;2023-06-26T10:54:15;8.98;;;5.18;;
20271;SDS011;10295;49.812;9.866;2023-06-26T10:56:46;8.77;;;4.65;;
20271;SDS011;10295;49.812;9.866;2023-06-26T10:59:20;8.40;;;5.20;;
20271;SDS011;10295;49.812;9.866;2023-06-26T11:01:54;8.05;;;4.97;;
20271;SDS011;10295;49.812;9.866;2023-06-26T11:04:43;9.15;;;5.40;;
20271;SDS011;10295;49.812;9.866;2023-06-26T11:07:15;11.65;;;5.80;;
20271;SDS011;10295;49.812;9.866;2023-06-26T11:15:04;12.85;;;6.40;;
20271;SDS011;10295;49.812;9.866;2023-06-26T11:17:31;8.90;;;5.75;;
20271;SDS011;10295;49.812;9.866;2023-06-26T11:19:58;10.95;;;6.45;;
20271;SDS011;10295;49.812;9.866;2023-06-26T11:22:29;11.50;;;6.20;;
20271;SDS011;10295;49.812;9.866;2023-06-26T11:24:59;9.73;;;6.28;;
20271;SDS011;10295;49.812;9.866;2023-06-26T11:27:37;12.40;;;5.68;;
20271;SDS011;10295;49.812;9.866;2023-06-26T11:30:05;9.10;;;5.40;;
20271;SDS011;10295;49.812;9.866;2023-06-26T11:32:33;9.43;;;5.72;;
20271;SDS011;10295;49.812;9.866;2023-06-26T11:35:01;9.63;;;5.60;;
20271;SDS011;10295;49.812;9.866;2023-06-26T11:37:28;9.63;;;4.78;;
20271;SDS011;10295;49.812;9.866;2023-06-26T11:39:55;9.50;;;5.38;;
20271;SDS011;10295;49.812;9.866;2023-06-26T11:42:23;11.63;;;5.57;;
20271;SDS011;10295;49.812;9.866;2023-06-26T11:44:51;10.88;;;5.70;;
20271;SDS011;10295;49.812;9.866;2023-06-26T11:47:20;9.77;;;5.60;;
20271;SDS011;10295;49.812;9.866;2023-06-26T11:49:49;9.43;;;5.38;;
20271;SDS011;10295;49.812;9.866;2023-06-26T11:52:16;9.25;;;5.47;;
20271;SDS011;10295;49.812;9.866;2023-06-26T11:54:44;10.07;;;5.53;;
20271;SDS011;10295;49.812;9.866;2023-06-26T11:57:15;9.25;;;5.57;;
20271;SDS011;10295;49.812;9.866;2023-06-26T11:59:45;9.13;;;4.82;;
20271;SDS011;10295;49.812;9.866;2023-06-26T12:02:13;10.30;;;5.28;;
20271;SDS011;10295;49.812;9.866;2023-06-26T12:04:42;14.80;;;5.43;;
20271;SDS011;10295;49.812;9.866;2023-06-26T12:07:10;10.90;;;5.07;;
20271;SDS011;10295;49.812;9.866;2023-06-26T12:09:40;12.20;;;5.75;;
20271;SDS011;10295;49.812;9.866;2023-06-26T12:12:08;10.48;;;6.03;;
20271;SDS011;10295;49.812;9.866;2023-06-26T12:14:36;11.15;;;5.80;;
20271;SDS011;10295;49.812;9.866;2023-06-26T12:17:03;12.68;;;6.03;;
20271;SDS011;10295;49.812;9.866;2023-06-26T12:19:31;12.15;;;5.97;;
20271;SDS011;10295;49.812;9.866;2023-06-26T12:21:58;11.25;;;5.95;;
20271;SDS011;10295;49.812;9.866;2023-06-26T12:24:25;10.32;;;6.50;;
20271;SDS011;10295;49.812;9.866;2023-06-26T12:26:54;12.90;;;6.60;;
20271;SDS011;10295;49.812;9.866;2023-06-26T12:29:33;11.43;;;6.38;;
20271;SDS011;10295;49.812;9.866;2023-06-26T12:32:01;14.10;;;6.60;;
20271;SDS011;10295;49.812;9.866;2023-06-26T12:34:31;12.48;;;6.65;;
20271;SDS011;10295;49.812;9.866;2023-06-26T12:37:05;12.82;;;7.30;;
20271;SDS011;10295;49.812;9.866;2023-06-26T12:39:45;12.20;;;6.85;;
20271;SDS011;10295;49.812;9.866;2023-06-26T12:42:14;12.50;;;7.25;;
20271;SDS011;10295;49.812;9.866;2023-06-26T12:44:41;12.38;;;7.15;;
20271;SDS011;10295;49.812;9.866;2023-06-26T12:47:08;13.25;;;6.90;;
20271;SDS011;10295;49.812;9.866;2023-06-26T12:49:37;15.15;;;6.97;;
20271;SDS011;10295;49.812;9.866;2023-06-26T12:52:05;11.80;;;6.90;;
20271;SDS011;10295;49.812;9.866;2023-06-26T12:54:33;14.13;;;7.18;;
20271;SDS011;10295;49.812;9.866;2023-06-26T12:57:01;11.60;;;7.25;;
20271;SDS011;10295;49.812;9.866;2023-06-26T12:59:30;12.45;;;7.25;;
20271;SDS011;10295;49.812;9.866;2023-06-26T13:01:58;10.90;;;6.93;;
20271;SDS011;10295;49.812;9.866;2023-06-26T13:04:25;11.60;;;7.10;;
20271;SDS011;10295;49.812;9.866;2023-06-26T13:06:53;11.07;;;6.78;;
20271;SDS011;10295;49.812;9.866;2023-06-26T13:09:23;12.90;;;6.78;;
20271;SDS011;10295;49.812;9.866;2023-06-26T13:11:54;9.65;;;6.55;;
20271;SDS011;10295;49.812;9.866;2023-06-26T13:14:21;10.05;;;6.57;;
20271;SDS011;10295;49.812;9.866;2023-06-26T13:16:48;15.75;;;6.88;;
20271;SDS011;10295;49.812;9.866;2023-06-26T13:19:16;13.88;;;6.65;;
20271;SDS011;10295;49.812;9.866;2023-06-26T13:21:43;10.63;;;6.20;;
20271;SDS011;10295;49.812;9.866;2023-06-26T13:24:11;11.43;;;6.30;;
20271;SDS011;10295;49.812;9.866;2023-06-26T13:26:39;11.40;;;6.80;;
20271;SDS011;10295;49.812;9.866;2023-06-26T13:29:06;11.55;;;6.93;;
20271;SDS011;10295;49.812;9.866;2023-06-26T13:31:33;11.85;;;6.45;;
20271;SDS011;10295;49.812;9.866;2023-06-26T13:34:01;11.25;;;6.45;;
20271;SDS011;10295;49.812;9.866;2023-06-26T13:36:30;15.00;;;6.45;;
20271;SDS011;10295;49.812;9.866;2023-06-26T13:39:01;10.77;;;6.15;;
20271;SDS011;10295;49.812;9.866;2023-06-26T13:41:28;13.07;;;5.88;;
20271;SDS011;10295;49.812;9.866;2023-06-26T13:43:56;12.43;;;6.30;;
20271;SDS011;10295;49.812;9.866;2023-06-26T13:46:27;10.45;;;6.28;;
20271;SDS011;10295;49.812;9.866;2023-06-26T13:48:54;13.00;;;6.55;;
20271;SDS011;10295;49.812;9.866;2023-06-26T13:51:21;10.55;;;6.00;;
20271;SDS011;10295;49.812;9.866;2023-06-26T13:53:48;13.75;;;6.40;;
20271;SDS011;10295;49.812;9.866;2023-06-26T13:56:15;10.73;;;6.38;;
20271;SDS011;10295;49.812;9.866;2023-06-26T13:58:44;11.90;;;6.53;;
20271;SDS011;10295;49.812;9.866;2023-06-26T14:01:11;12.70;;;6.13;;
20271;SDS011;10295;49.812;9.866;2023-06-26T14:03:40;11.93;;;6.40;;
20271;SDS011;10295;49.812;9.866;2023-06-26T14:06:07;11.55;;;6.53;;
20271;SDS011;10295;49.812;9.866;2023-06-26T14:08:34;12.23;;;6.18;;
20271;SDS011;10295;49.812;9.866;2023-06-26T14:11:02;11.52;;;6.18;;
20271;SDS011;10295;49.812;9.866;2023-06-26T14:13:29;11.00;;;5.97;;
20271;SDS011;10295;49.812;9.866;2023-06-26T14:15:56;12.35;;;5.93;;
20271;SDS011;10295;49.812;9.866;2023-06-26T14:18:23;13.88;;;5.97;;
20271;SDS011;10295;49.812;9.866;2023-06-26T14:20:51;12.05;;;5.93;;
20271;SDS011;10295;49.812;9.866;2023-06-26T14:23:19;11.93;;;6.22;;
20271;SDS011;10295;49.812;9.866;2023-06-26T14:25:47;12.32;;;5.75;;
20271;SDS011;10295;49.812;9.866;2023-06-26T14:28:15;11.35;;;5.50;;
20271;SDS011;10295;49.812;9.866;2023-06-26T14:30:42;12.35;;;6.28;;
20271;SDS011;10295;49.812;9.866;2023-06-26T14:33:10;14.18;;;6.25;;
20271;SDS011;10295;49.812;9.866;2023-06-26T14:35:37;11.43;;;5.57;;
20271;SDS011;10295;49.812;9.866;2023-06-26T14:38:04;11.73;;;5.85;;
20271;SDS011;10295;49.812;9.866;2023-06-26T14:40:31;12.60;;;5.80;;
20271;SDS011;10295;49.812;9.866;2023-06-26T14:42:59;12.32;;;5.90;;
20271;SDS011;10295;49.812;9.866;2023-06-26T14:45:26;10.32;;;5.55;;
20271;SDS011;10295;49.812;9.866;2023-06-26T14:47:54;13.23;;;5.65;;
20271;SDS011;10295;49.812;9.866;2023-06-26T14:50:21;10.77;;;5.95;;
20271;SDS011;10295;49.812;9.866;2023-06-26T14:52:49;13.02;;;5.78;;
20271;SDS011;10295;49.812;9.866;2023-06-26T14:55:16;11.50;;;5.68;;
20271;SDS011;10295;49.812;9.866;2023-06-26T14:57:43;15.43;;;5.80;;